Plock, Poland
Current Conditions -  °F | °C
As of 7:00 AM on Friday 31 Oct 2014 (Local Time) from EPMO Reporting Station
Haze Haze  
Wind Chill: 43°   Ceiling: 500
Heat Index: 43°   Visibility: 3mi
Dew Point: 41°   Wind: 3mph
Humidity: 93%   Direction: 300°WNW
Pressure: 30.33"   Gusts: NA
Location:  52.55°N, 19.7°E
Report Text: EPMO 310500Z 30003KT 5000 BR OVC005 06/05 Q1027
Loading
Personal Weather Stations






























Interactive Weather Map
Tropical Storm Tracking
New forecast layout! Learn more

10-Day Weather Forecast

Advertisements
Track Severe Weather on mobile